createdAt,value
2019-04-14T00:01:19.425Z,62.00
2019-04-14T00:06:22.848Z,62.20
2019-04-14T00:11:26.297Z,62.10
2019-04-14T00:16:31.244Z,61.80
2019-04-14T00:21:34.711Z,62.00
2019-04-14T00:26:38.090Z,62.00
2019-04-14T00:31:41.469Z,62.00
2019-04-14T00:37:01.621Z,62.20
2019-04-14T00:42:06.805Z,62.20
2019-04-14T00:47:31.244Z,62.40
2019-04-14T00:52:34.758Z,62.40
2019-04-14T00:57:38.323Z,62.70
2019-04-14T01:02:42.720Z,62.30
2019-04-14T01:07:46.263Z,62.70
2019-04-14T01:12:49.697Z,62.80
2019-04-14T01:17:53.107Z,62.60
2019-04-14T01:22:57.405Z,62.90
2019-04-14T01:28:00.836Z,62.70
2019-04-14T01:33:05.379Z,62.90
2019-04-14T01:38:08.884Z,63.40
2019-04-14T01:43:12.392Z,63.50
2019-04-14T01:48:15.731Z,63.70
2019-04-14T01:53:20.844Z,63.70
2019-04-14T01:58:36.033Z,64.00
2019-04-14T02:03:39.524Z,64.10
2019-04-14T02:08:43.661Z,64.20
2019-04-14T02:13:48.469Z,64.30
2019-04-14T02:18:53.537Z,64.40
2019-04-14T02:23:58.222Z,64.70
2019-04-14T02:29:01.772Z,64.80
2019-04-14T02:39:38.664Z,65.10
2019-04-14T02:59:59.616Z,65.40
2019-04-14T03:10:00.809Z,65.70
2019-04-14T03:15:13.106Z,65.90
2019-04-14T03:25:30.067Z,66.20
2019-04-14T03:31:21.320Z,66.50
2019-04-14T03:41:07.088Z,67.10
2019-04-14T03:45:59.290Z,67.10
2019-04-14T03:51:00.325Z,67.10
2019-04-14T03:55:55.521Z,67.60
2019-04-14T04:00:55.737Z,67.70
2019-04-14T04:05:59.127Z,67.70
2019-04-14T04:11:02.591Z,68.00
2019-04-14T04:16:13.910Z,68.00
2019-04-14T04:21:25.035Z,68.60
2019-04-14T04:26:36.587Z,68.80
2019-04-14T04:31:48.261Z,68.70
2019-04-14T04:37:06.052Z,69.00
2019-04-14T04:42:09.560Z,68.80
2019-04-14T04:47:12.959Z,69.30
2019-04-14T04:52:17.292Z,69.50
2019-04-14T04:57:21.980Z,69.80
2019-04-14T05:02:26.570Z,69.80
2019-04-14T05:07:30.107Z,69.90
2019-04-14T05:12:35.127Z,70.40
2019-04-14T05:17:40.917Z,70.50
2019-04-14T05:22:44.345Z,70.60
2019-04-14T05:27:47.796Z,70.60
2019-04-14T05:32:52.222Z,70.70
2019-04-14T05:37:55.648Z,71.20
2019-04-14T05:43:00.173Z,71.30
2019-04-14T05:48:03.631Z,71.60
2019-04-14T05:53:07.019Z,71.60
2019-04-14T05:58:10.403Z,71.80
2019-04-14T06:03:14.562Z,71.90
2019-04-14T06:08:18.055Z,72.00
2019-04-14T06:13:21.435Z,72.40
2019-04-14T06:18:24.843Z,72.20
2019-04-14T06:23:28.211Z,72.40
2019-04-14T06:28:31.683Z,72.70
2019-04-14T06:33:42.791Z,72.80
2019-04-14T06:38:47.816Z,72.70
2019-04-14T06:43:51.206Z,73.00
2019-04-14T06:48:54.588Z,73.00
2019-04-14T06:53:57.976Z,73.00
2019-04-14T06:59:01.362Z,73.00
2019-04-14T07:04:04.748Z,73.20
2019-04-14T07:09:08.131Z,73.70
2019-04-14T07:14:11.515Z,74.50
2019-04-14T07:19:14.905Z,74.90
2019-04-14T07:24:18.280Z,75.00
2019-04-14T07:29:22.133Z,74.80
2019-04-14T07:34:27.160Z,74.70
2019-04-14T07:39:32.191Z,73.70
2019-04-14T07:44:37.216Z,73.40
2019-04-14T07:49:54.057Z,72.50
2019-04-14T07:55:15.144Z,72.30
2019-04-14T08:00:36.247Z,71.40
2019-04-14T08:05:41.511Z,70.00
2019-04-14T08:10:44.897Z,69.00
2019-04-14T08:15:48.275Z,69.10
2019-04-14T08:20:51.742Z,67.50
2019-04-14T08:25:55.124Z,66.40
2019-04-14T08:30:58.512Z,66.20
2019-04-14T08:36:01.919Z,64.60
2019-04-14T08:41:05.319Z,63.40
2019-04-14T08:46:26.623Z,62.70
2019-04-14T08:51:31.657Z,61.60
2019-04-14T08:56:48.755Z,61.30
2019-04-14T09:02:02.499Z,60.80
2019-04-14T09:07:22.529Z,60.50
2019-04-14T09:12:27.564Z,61.00
2019-04-14T09:17:31.019Z,59.40
2019-04-14T09:22:34.407Z,59.90
2019-04-14T09:27:37.795Z,59.20
2019-04-14T09:32:41.180Z,58.50
2019-04-14T09:37:44.560Z,57.00
2019-04-14T09:42:47.943Z,56.90
2019-04-14T09:47:51.314Z,56.60
2019-04-14T09:52:54.719Z,57.30
2019-04-14T09:57:58.111Z,57.60
2019-04-14T10:03:01.496Z,57.30
2019-04-14T10:08:05.027Z,56.20
2019-04-14T10:13:08.531Z,55.30
2019-04-14T10:18:11.927Z,54.90
2019-04-14T10:23:15.332Z,52.00
2019-04-14T10:28:18.707Z,52.20
2019-04-14T10:33:22.110Z,51.10
2019-04-14T10:38:25.496Z,52.20
2019-04-14T10:43:28.889Z,52.40
2019-04-14T10:48:32.287Z,50.70
2019-04-14T10:53:35.675Z,51.50
2019-04-14T10:58:39.075Z,50.60
2019-04-14T11:03:42.483Z,51.20
2019-04-14T11:08:45.857Z,50.90
2019-04-14T11:13:49.233Z,50.70
2019-04-14T11:18:52.629Z,51.60
2019-04-14T11:23:56.019Z,50.70
2019-04-14T11:28:59.483Z,51.00
2019-04-14T11:34:04.139Z,51.90
2019-04-14T11:39:09.314Z,51.80
2019-04-14T11:44:12.712Z,51.90
2019-04-14T11:49:16.109Z,51.10
2019-04-14T11:54:19.511Z,52.30
2019-04-14T11:59:24.544Z,51.30
2019-04-14T12:04:29.586Z,50.80
2019-04-14T12:09:37.647Z,52.30
2019-04-14T12:14:41.043Z,53.20
2019-04-14T12:19:44.449Z,53.00
